Time;durP1;ratioP1;P1;durP2;ratioP2;P2;SDS_P1;SDS_P2;PMS_P1;PMS_P2;Temp;Humidity;BMP_temperature;BMP_pressure;BME280_temperature;BME280_humidity;BME280_pressure;Samples;Min_cycle;Max_cycle;Signal;HPM_P1;HPM_P2
2022/03/02 00:00:06;;;;;;;;;;;22.30;28.70;;;;;;5067316;28;19923;-48
2022/03/02 00:02:32;;;;;;;;;;;22.30;28.80;;;;;;5064060;28;20316;-44
2022/03/02 00:04:58;;;;;;;;;;;22.30;28.80;;;;;;5072443;28;19974;-51
2022/03/02 00:07:23;;;;;;;;;;;22.20;28.80;;;;;;5076014;28;19920;-48
2022/03/02 00:09:50;;;;;;;;;;;22.20;28.80;;;;;;5076026;28;19934;-50
2022/03/02 00:12:16;;;;;;;;;;;22.20;28.80;;;;;;5062658;28;20283;-46
2022/03/02 00:14:41;;;;;;;;;;;22.20;28.80;;;;;;5063677;28;19916;-46
2022/03/02 00:17:07;;;;;;;;;;;22.20;28.90;;;;;;5063537;28;19909;-45
2022/03/02 00:19:34;;;;;;;;;;;22.20;28.90;;;;;;5061934;28;19912;-50
2022/03/02 00:21:59;;;;;;;;;;;22.20;28.90;;;;;;5064932;28;20295;-50
2022/03/02 00:24:25;;;;;;;;;;;22.20;28.90;;;;;;5069735;28;19909;-47
2022/03/02 00:26:51;;;;;;;;;;;22.20;28.90;;;;;;5075915;28;19970;-46
2022/03/02 00:29:16;;;;;;;;;;;22.20;28.90;;;;;;5076166;28;19909;-49
2022/03/02 00:31:42;;;;;;;;;;;22.20;28.90;;;;;;5067169;28;19999;-49
2022/03/02 00:34:08;;;;;;;;;;;22.20;28.90;;;;;;5060574;28;19932;-47
2022/03/02 00:36:34;;;;;;;;;;;22.20;28.90;;;;;;5075678;28;19912;-48
2022/03/02 00:38:59;;;;;;;;;;;22.20;28.80;;;;;;5076368;28;19985;-49
2022/03/02 00:41:25;;;;;;;;;;;22.20;28.90;;;;;;5069599;28;19967;-50
2022/03/02 00:43:51;;;;;;;;;;;22.20;28.90;;;;;;5063787;28;19909;-49
2022/03/02 00:46:17;;;;;;;;;;;22.20;28.90;;;;;;5076152;28;19908;-49
2022/03/02 00:48:43;;;;;;;;;;;22.10;28.80;;;;;;5074973;28;19908;-48
2022/03/02 00:51:09;;;;;;;;;;;22.10;28.80;;;;;;5075362;28;19916;-50
2022/03/02 00:53:35;;;;;;;;;;;22.10;28.80;;;;;;5069224;28;19908;-50
2022/03/02 00:56:00;;;;;;;;;;;22.10;28.80;;;;;;5074733;28;19923;-48
2022/03/02 00:58:26;;;;;;;;;;;22.10;28.80;;;;;;5070557;28;19913;-47
2022/03/02 01:00:52;;;;;;;;;;;22.10;28.80;;;;;;5072731;28;20201;-48
2022/03/02 01:03:17;;;;;;;;;;;22.10;28.80;;;;;;5071537;28;20347;-50
2022/03/02 01:05:43;;;;;;;;;;;22.10;28.80;;;;;;5072305;28;19908;-54
2022/03/02 01:08:09;;;;;;;;;;;22.10;28.80;;;;;;5072940;28;19967;-46
2022/03/02 01:10:35;;;;;;;;;;;22.10;28.80;;;;;;5069799;28;19912;-49
2022/03/02 01:13:00;;;;;;;;;;;22.10;28.80;;;;;;5075122;28;19919;-50
2022/03/02 01:15:26;;;;;;;;;;;22.10;28.80;;;;;;5075441;28;19909;-50
2022/03/02 01:17:52;;;;;;;;;;;22.10;28.80;;;;;;5067116;28;19931;-48
2022/03/02 01:20:17;;;;;;;;;;;22.10;28.80;;;;;;5070332;28;19928;-51
2022/03/02 01:22:43;;;;;;;;;;;22.10;28.80;;;;;;5074288;28;19967;-49
2022/03/02 01:25:09;;;;;;;;;;;22.10;28.80;;;;;;5075300;28;19919;-46
2022/03/02 01:27:35;;;;;;;;;;;22.10;28.80;;;;;;5074486;28;19938;-50
2022/03/02 01:30:02;;;;;;;;;;;22.10;28.80;;;;;;5074120;28;19909;-47
2022/03/02 01:32:28;;;;;;;;;;;22.00;28.70;;;;;;5074896;28;19919;-46
2022/03/02 01:34:53;;;;;;;;;;;22.00;28.70;;;;;;5074685;28;19912;-48
2022/03/02 01:37:19;;;;;;;;;;;22.00;28.70;;;;;;5067518;28;20239;-48
2022/03/02 01:39:45;;;;;;;;;;;22.00;28.70;;;;;;5068041;28;19912;-46
2022/03/02 01:42:10;;;;;;;;;;;22.00;28.70;;;;;;5074368;28;20002;-50
2022/03/02 01:44:36;;;;;;;;;;;22.00;28.70;;;;;;5075183;28;19908;-48
2022/03/02 01:47:03;;;;;;;;;;;22.00;28.70;;;;;;5070518;28;19992;-47
2022/03/02 01:49:28;;;;;;;;;;;22.00;28.70;;;;;;5064796;28;19909;-50
2022/03/02 01:51:54;;;;;;;;;;;21.90;28.70;;;;;;5071727;28;19967;-52
2022/03/02 01:54:20;;;;;;;;;;;22.00;28.70;;;;;;5058581;28;19971;-45
2022/03/02 01:56:45;;;;;;;;;;;22.00;28.80;;;;;;5054716;28;20220;-50
2022/03/02 01:59:11;;;;;;;;;;;22.00;28.80;;;;;;5061860;28;19919;-47
2022/03/02 02:01:40;;;;;;;;;;;21.90;28.70;;;;;;5074646;28;19958;-48
2022/03/02 02:04:06;;;;;;;;;;;21.90;28.70;;;;;;5068341;28;19955;-48
2022/03/02 02:06:32;;;;;;;;;;;21.90;28.70;;;;;;5074094;28;19955;-53
2022/03/02 02:08:59;;;;;;;;;;;21.90;28.70;;;;;;5074527;28;20347;-50
2022/03/02 02:11:24;;;;;;;;;;;21.90;28.70;;;;;;5071192;28;19912;-48
2022/03/02 02:13:50;;;;;;;;;;;21.90;29.20;;;;;;5074228;28;20377;-50
2022/03/02 02:16:17;;;;;;;;;;;21.90;28.70;;;;;;5074272;28;19983;-51
2022/03/02 02:18:43;;;;;;;;;;;21.90;28.70;;;;;;5073515;28;19908;-50
2022/03/02 02:21:09;;;;;;;;;;;21.90;28.70;;;;;;5074140;28;19916;-47
2022/03/02 02:23:35;;;;;;;;;;;21.90;28.70;;;;;;5074763;28;20007;-50
2022/03/02 02:26:01;;;;;;;;;;;21.90;28.70;;;;;;5074045;28;19919;-48
2022/03/02 02:28:27;;;;;;;;;;;21.90;28.70;;;;;;5074709;28;19971;-51
2022/03/02 02:30:54;;;;;;;;;;;21.90;28.70;;;;;;5065433;28;20346;-49
2022/03/02 02:33:21;;;;;;;;;;;21.80;28.70;;;;;;5061665;28;19908;-51
2022/03/02 02:35:46;;;;;;;;;;;21.80;28.70;;;;;;5065445;28;19909;-48
2022/03/02 02:38:12;;;;;;;;;;;21.90;28.70;;;;;;5055010;28;19919;-47
2022/03/02 02:40:38;;;;;;;;;;;21.80;28.70;;;;;;5066792;28;19917;-49
2022/03/02 02:43:05;;;;;;;;;;;21.80;28.70;;;;;;5058352;28;20219;-47
2022/03/02 02:45:30;;;;;;;;;;;21.80;28.70;;;;;;5071608;28;19908;-50
2022/03/02 02:47:57;;;;;;;;;;;21.80;28.70;;;;;;5058559;28;19971;-49
2022/03/02 02:50:28;;;;;;;;;;;21.80;28.70;;;;;;5071054;28;20268;-53
2022/03/02 02:52:54;;;;;;;;;;;21.80;28.70;;;;;;5065908;28;20296;-52
2022/03/02 02:55:21;;;;;;;;;;;21.80;28.70;;;;;;5066196;28;20344;-49
2022/03/02 02:57:47;;;;;;;;;;;21.70;28.60;;;;;;5057860;28;20379;-50
2022/03/02 03:00:15;;;;;;;;;;;21.80;28.70;;;;;;5073912;28;20370;-50
2022/03/02 03:02:41;;;;;;;;;;;21.80;28.70;;;;;;5078470;28;19927;-47
2022/03/02 03:05:10;;;;;;;;;;;21.80;28.70;;;;;;5072440;28;20270;-48
2022/03/02 03:07:36;;;;;;;;;;;21.70;29.10;;;;;;5077965;28;19919;-52
2022/03/02 03:10:02;;;;;;;;;;;21.80;28.70;;;;;;5068819;28;19908;-50
2022/03/02 03:12:27;;;;;;;;;;;21.70;28.60;;;;;;5057710;28;20379;-49
2022/03/02 03:14:53;;;;;;;;;;;21.70;28.60;;;;;;5063458;28;19963;-52
2022/03/02 03:17:19;;;;;;;;;;;21.70;28.60;;;;;;5067340;28;19908;-50
2022/03/02 03:19:44;;;;;;;;;;;21.80;28.70;;;;;;5069802;28;19924;-46
2022/03/02 03:22:10;;;;;;;;;;;21.70;28.60;;;;;;5057587;28;20415;-50
2022/03/02 03:24:36;;;;;;;;;;;21.70;28.60;;;;;;5062616;28;19962;-48
2022/03/02 03:27:01;;;;;;;;;;;21.70;28.60;;;;;;5057808;28;19908;-49
2022/03/02 03:29:27;;;;;;;;;;;21.70;28.60;;;;;;5069939;28;19970;-52
2022/03/02 03:31:53;;;;;;;;;;;21.70;28.60;;;;;;5077952;28;20358;-46
2022/03/02 03:34:18;;;;;;;;;;;21.70;28.60;;;;;;5074092;28;20220;-45
2022/03/02 03:36:44;;;;;;;;;;;21.70;28.60;;;;;;5077422;28;20308;-48
2022/03/02 03:39:10;;;;;;;;;;;21.70;28.60;;;;;;5069559;28;19939;-52
2022/03/02 03:41:35;;;;;;;;;;;21.70;28.60;;;;;;5070631;28;20010;-50
2022/03/02 03:44:01;;;;;;;;;;;21.70;28.50;;;;;;5066249;28;19908;-48
2022/03/02 03:46:27;;;;;;;;;;;21.70;28.50;;;;;;5057498;28;20345;-47
2022/03/02 03:48:53;;;;;;;;;;;21.70;28.50;;;;;;5071818;28;19909;-52
2022/03/02 03:51:19;;;;;;;;;;;21.70;28.50;;;;;;5077734;28;19931;-49
2022/03/02 03:53:44;;;;;;;;;;;21.70;28.50;;;;;;5069292;28;19932;-47
2022/03/02 03:56:10;;;;;;;;;;;21.70;28.50;;;;;;5056927;28;19916;-46
2022/03/02 03:58:36;;;;;;;;;;;21.70;28.50;;;;;;5069047;28;19919;-48
2022/03/02 04:01:01;;;;;;;;;;;21.70;28.50;;;;;;5077063;28;20347;-51
2022/03/02 04:03:27;;;;;;;;;;;21.60;28.50;;;;;;5074763;28;19908;-50
2022/03/02 04:05:53;;;;;;;;;;;21.60;28.50;;;;;;5076936;28;19909;-48
2022/03/02 04:08:18;;;;;;;;;;;21.60;28.50;;;;;;5071508;28;19959;-47
2022/03/02 04:10:45;;;;;;;;;;;21.60;28.50;;;;;;5056823;28;20001;-49
2022/03/02 04:13:11;;;;;;;;;;;21.60;28.50;;;;;;5062541;28;19919;-54
2022/03/02 04:15:37;;;;;;;;;;;21.60;28.50;;;;;;5056489;28;19948;-45
2022/03/02 04:18:03;;;;;;;;;;;21.60;28.50;;;;;;5062655;28;19920;-48
2022/03/02 04:20:28;;;;;;;;;;;21.60;28.50;;;;;;5060076;28;19917;-48
2022/03/02 04:22:54;;;;;;;;;;;21.60;28.50;;;;;;5074261;28;19917;-47
2022/03/02 04:25:20;;;;;;;;;;;21.60;28.50;;;;;;5076235;28;20285;-48
2022/03/02 04:27:45;;;;;;;;;;;21.60;28.50;;;;;;5073947;28;19908;-46
2022/03/02 04:30:12;;;;;;;;;;;21.60;28.50;;;;;;5076658;28;19917;-47
2022/03/02 04:32:37;;;;;;;;;;;21.60;28.50;;;;;;5068759;28;20375;-45
2022/03/02 04:35:04;;;;;;;;;;;21.60;28.50;;;;;;5075984;28;19904;-50
2022/03/02 04:37:30;;;;;;;;;;;21.50;28.40;;;;;;5075367;28;19908;-47
2022/03/02 04:39:55;;;;;;;;;;;21.50;28.50;;;;;;5076188;28;20193;-45
2022/03/02 04:42:21;;;;;;;;;;;21.50;28.50;;;;;;5074278;28;20256;-48
2022/03/02 04:44:47;;;;;;;;;;;21.50;28.40;;;;;;5075093;28;19908;-51
2022/03/02 04:47:13;;;;;;;;;;;21.50;28.40;;;;;;5074693;28;20402;-50
2022/03/02 04:49:38;;;;;;;;;;;21.50;28.40;;;;;;5075733;28;19972;-52
2022/03/02 04:52:04;;;;;;;;;;;21.50;28.40;;;;;;5072984;28;19921;-49
2022/03/02 04:57:14;;;;;;;;;;;21.50;28.40;;;;;;5073920;28;20356;-48
2022/03/02 04:59:40;;;;;;;;;;;21.50;28.40;;;;;;5075807;28;19975;-48
2022/03/02 05:02:05;;;;;;;;;;;21.50;28.40;;;;;;5066580;28;20363;-51
2022/03/02 05:04:31;;;;;;;;;;;21.50;28.40;;;;;;5074906;28;20239;-49
2022/03/02 05:06:57;;;;;;;;;;;21.50;28.40;;;;;;5074336;28;19919;-52
2022/03/02 05:09:22;;;;;;;;;;;21.50;28.40;;;;;;5074344;28;19982;-52
2022/03/02 05:11:48;;;;;;;;;;;21.50;28.40;;;;;;5075349;28;19913;-54
2022/03/02 05:14:14;;;;;;;;;;;21.50;28.40;;;;;;5074749;28;19938;-48
2022/03/02 05:16:39;;;;;;;;;;;21.50;28.40;;;;;;5069912;28;19908;-47
2022/03/02 05:19:05;;;;;;;;;;;21.50;28.40;;;;;;5072424;28;19912;-50
2022/03/02 05:21:31;;;;;;;;;;;21.40;28.30;;;;;;5074650;28;19927;-49
2022/03/02 05:23:56;;;;;;;;;;;21.40;28.30;;;;;;5074394;28;19908;-51
2022/03/02 05:26:23;;;;;;;;;;;21.40;28.30;;;;;;5063637;28;19967;-48
2022/03/02 05:28:48;;;;;;;;;;;21.50;28.40;;;;;;5069953;28;19908;-49
2022/03/02 05:31:14;;;;;;;;;;;21.40;28.30;;;;;;5074583;28;19977;-52
2022/03/02 05:33:39;;;;;;;;;;;21.50;28.90;;;;;;5073256;28;19908;-51
2022/03/02 05:36:05;;;;;;;;;;;21.40;28.30;;;;;;5074352;28;19912;-47
2022/03/02 05:38:31;;;;;;;;;;;21.40;28.30;;;;;;5074281;28;20013;-48
2022/03/02 05:40:57;;;;;;;;;;;21.40;28.30;;;;;;5066650;28;19916;-48
2022/03/02 05:43:23;;;;;;;;;;;21.40;28.30;;;;;;5066702;28;19909;-49
2022/03/02 05:45:48;;;;;;;;;;;21.40;28.30;;;;;;5074022;28;19908;-51
2022/03/02 05:48:14;;;;;;;;;;;21.40;28.30;;;;;;5069369;28;20294;-47
2022/03/02 05:50:40;;;;;;;;;;;21.40;28.30;;;;;;5055184;28;19909;-47
2022/03/02 05:53:06;;;;;;;;;;;21.40;28.30;;;;;;5060041;28;19921;-51
2022/03/02 05:55:31;;;;;;;;;;;21.40;28.30;;;;;;5055285;28;19909;-51
2022/03/02 05:57:57;;;;;;;;;;;21.40;28.30;;;;;;5067121;28;19924;-50
2022/03/02 06:00:23;;;;;;;;;;;21.40;28.30;;;;;;5054882;28;20328;-52
2022/03/02 06:02:48;;;;;;;;;;;21.40;28.30;;;;;;5069769;28;20315;-52
2022/03/02 06:05:14;;;;;;;;;;;21.40;28.30;;;;;;5074636;28;20342;-47
2022/03/02 06:07:40;;;;;;;;;;;21.40;28.30;;;;;;5063171;28;20351;-50
2022/03/02 06:10:06;;;;;;;;;;;21.40;28.80;;;;;;5075378;28;19913;-51
2022/03/02 06:12:31;;;;;;;;;;;21.40;28.30;;;;;;5062596;28;19951;-51
2022/03/02 06:14:57;;;;;;;;;;;21.30;28.20;;;;;;5074813;28;19905;-49
2022/03/02 06:17:23;;;;;;;;;;;21.30;28.20;;;;;;5066224;28;20367;-51
2022/03/02 06:19:49;;;;;;;;;;;21.30;28.20;;;;;;5078298;28;20065;-51
2022/03/02 06:22:20;;;;;;;;;;;21.40;28.20;;;;;;5066324;28;19920;-48
2022/03/02 06:24:46;;;;;;;;;;;21.30;28.20;;;;;;5075840;28;20434;-49
2022/03/02 06:27:11;;;;;;;;;;;21.30;28.20;;;;;;5060521;28;19947;-48
2022/03/02 06:29:38;;;;;;;;;;;21.30;28.20;;;;;;5069345;28;19917;-50
2022/03/02 06:32:04;;;;;;;;;;;21.30;28.20;;;;;;5059521;28;19913;-51
2022/03/02 06:34:30;;;;;;;;;;;21.30;28.20;;;;;;5072397;28;20216;-46
2022/03/02 06:36:55;;;;;;;;;;;21.30;28.10;;;;;;5078194;28;20307;-53
2022/03/02 06:39:22;;;;;;;;;;;21.30;28.20;;;;;;5076637;28;20247;-48
2022/03/02 06:41:53;;;;;;;;;;;21.30;28.10;;;;;;5078180;28;20335;-48
2022/03/02 06:44:37;;;;;;;;;;;21.30;28.10;;;;;;5076995;28;19995;-48
2022/03/02 06:47:09;;;;;;;;;;;21.30;28.20;;;;;;5077985;28;20323;-50
2022/03/02 06:49:45;;;;;;;;;;;21.30;28.20;;;;;;5064985;28;19909;-52
2022/03/02 06:52:11;;;;;;;;;;;21.30;28.30;;;;;;5059880;28;19921;-52
2022/03/02 06:54:40;;;;;;;;;;;21.30;28.30;;;;;;5077018;28;19908;-50
2022/03/02 06:57:07;;;;;;;;;;;21.30;28.30;;;;;;5077025;28;19928;-51
2022/03/02 06:59:38;;;;;;;;;;;21.30;28.30;;;;;;5063539;28;19975;-49
2022/03/02 07:02:04;;;;;;;;;;;21.30;28.30;;;;;;5059546;28;19948;-52
2022/03/02 07:04:40;;;;;;;;;;;21.30;28.30;;;;;;5076767;28;19915;-52
2022/03/02 07:07:06;;;;;;;;;;;21.30;28.30;;;;;;5077212;28;20258;-49
2022/03/02 07:09:33;;;;;;;;;;;21.30;28.30;;;;;;5064162;28;20216;-52
2022/03/02 07:12:00;;;;;;;;;;;21.30;28.30;;;;;;5058711;28;20004;-48
2022/03/02 07:14:27;;;;;;;;;;;21.30;28.30;;;;;;5076686;28;19919;-47
2022/03/02 07:16:55;;;;;;;;;;;21.30;28.30;;;;;;5076799;28;20243;-46
2022/03/02 07:19:21;;;;;;;;;;;21.20;28.30;;;;;;5074323;28;19974;-45
2022/03/02 07:21:46;;;;;;;;;;;21.20;28.80;;;;;;5077829;28;19913;-50
2022/03/02 07:24:17;;;;;;;;;;;21.30;28.30;;;;;;5076162;28;19951;-49
2022/03/02 07:26:44;;;;;;;;;;;21.30;28.30;;;;;;5077619;28;19921;-48
2022/03/02 07:29:11;;;;;;;;;;;21.30;28.30;;;;;;5065252;28;20003;-50
2022/03/02 07:31:37;;;;;;;;;;;21.30;28.30;;;;;;5067090;28;20258;-53
2022/03/02 07:34:05;;;;;;;;;;;21.30;28.30;;;;;;5076328;28;20028;-50
2022/03/02 07:36:31;;;;;;;;;;;21.20;28.30;;;;;;5065829;28;20373;-48
2022/03/02 07:38:57;;;;;;;;;;;21.20;28.30;;;;;;5074555;28;19956;-51
2022/03/02 07:41:22;;;;;;;;;;;21.30;28.40;;;;;;5075751;28;20430;-53
2022/03/02 07:43:50;;;;;;;;;;;21.30;28.30;;;;;;5075599;28;19909;-53
2022/03/02 07:46:16;;;;;;;;;;;21.20;28.30;;;;;;5057180;28;19908;-53
2022/03/02 07:48:42;;;;;;;;;;;21.30;28.40;;;;;;5071106;28;19909;-47
2022/03/02 07:51:08;;;;;;;;;;;21.20;28.40;;;;;;5069395;28;19920;-52
2022/03/02 07:53:39;;;;;;;;;;;21.20;28.40;;;;;;5074488;28;19923;-51
2022/03/02 07:56:06;;;;;;;;;;;21.20;28.40;;;;;;5073965;28;19916;-49
2022/03/02 07:58:33;;;;;;;;;;;21.20;28.40;;;;;;5074916;28;19908;-52
2022/03/02 08:01:00;;;;;;;;;;;21.30;28.40;;;;;;5074639;28;20247;-48
2022/03/02 08:03:27;;;;;;;;;;;21.30;28.30;;;;;;5072973;28;19919;-49
2022/03/02 08:06:02;;;;;;;;;;;21.30;28.30;;;;;;5056236;28;19909;-53
2022/03/02 08:08:28;;;;;;;;;;;21.40;28.20;;;;;;5059620;28;19959;-52
2022/03/02 08:10:54;;;;;;;;;;;21.50;28.20;;;;;;5075378;28;19920;-50
2022/03/02 08:13:19;;;;;;;;;;;21.50;28.10;;;;;;5073788;28;19920;-49
2022/03/02 08:15:45;;;;;;;;;;;21.70;28.00;;;;;;5069777;28;19920;-48
2022/03/02 08:18:12;;;;;;;;;;;21.70;27.90;;;;;;5059523;28;20050;-47
2022/03/02 08:20:47;;;;;;;;;;;21.90;28.00;;;;;;5066016;28;19917;-51
2022/03/02 08:23:13;;;;;;;;;;;22.00;28.00;;;;;;5074560;28;19909;-52
2022/03/02 08:25:38;;;;;;;;;;;22.10;27.90;;;;;;5075960;28;19965;-52
2022/03/02 08:28:06;;;;;;;;;;;22.20;27.80;;;;;;5071868;28;19954;-49
2022/03/02 08:30:33;;;;;;;;;;;22.30;27.80;;;;;;5073599;28;20247;-49
2022/03/02 08:33:00;;;;;;;;;;;22.40;27.70;;;;;;5073183;28;20319;-50
2022/03/02 08:35:27;;;;;;;;;;;22.50;27.60;;;;;;5065243;28;19927;-47
2022/03/02 08:37:52;;;;;;;;;;;22.60;27.50;;;;;;5073804;28;20251;-51
2022/03/02 08:40:18;;;;;;;;;;;22.60;27.30;;;;;;5070356;28;19916;-50
2022/03/02 08:42:45;;;;;;;;;;;22.70;27.20;;;;;;5063381;28;19928;-48
2022/03/02 08:45:11;;;;;;;;;;;22.80;27.10;;;;;;5064977;28;19920;-50
2022/03/02 08:47:38;;;;;;;;;;;22.90;27.10;;;;;;5073274;28;19908;-48
2022/03/02 08:50:04;;;;;;;;;;;23.00;27.00;;;;;;5071689;28;19967;-49
2022/03/02 08:52:32;;;;;;;;;;;23.00;26.90;;;;;;5063308;28;19908;-46
2022/03/02 08:55:00;;;;;;;;;;;23.10;26.80;;;;;;5056062;28;19951;-45
2022/03/02 08:57:26;;;;;;;;;;;23.20;26.70;;;;;;5069148;28;19974;-47
2022/03/02 08:59:55;;;;;;;;;;;23.30;26.70;;;;;;5062777;28;19923;-46
2022/03/02 09:02:23;;;;;;;;;;;23.30;26.60;;;;;;5062471;28;19932;-46
2022/03/02 09:04:49;;;;;;;;;;;23.40;26.50;;;;;;5065368;28;19962;-47
2022/03/02 09:07:16;;;;;;;;;;;23.50;26.50;;;;;;5060266;28;20335;-50
2022/03/02 09:09:42;;;;;;;;;;;23.50;26.40;;;;;;5057618;28;19970;-47
2022/03/02 09:12:08;;;;;;;;;;;23.60;26.40;;;;;;5062233;28;19913;-46
2022/03/02 09:14:34;;;;;;;;;;;23.60;26.40;;;;;;5067889;28;19921;-49
2022/03/02 09:17:00;;;;;;;;;;;23.60;26.40;;;;;;5057117;28;19909;-51
2022/03/02 09:19:26;;;;;;;;;;;23.60;26.50;;;;;;5057918;28;19908;-47
2022/03/02 09:21:51;;;;;;;;;;;23.70;26.50;;;;;;5066796;28;19919;-47
2022/03/02 09:24:18;;;;;;;;;;;23.70;26.50;;;;;;5071139;28;19909;-48
2022/03/02 09:26:45;;;;;;;;;;;23.70;26.60;;;;;;5073583;28;21299;-47
2022/03/02 09:29:12;;;;;;;;;;;23.70;26.60;;;;;;5073517;28;20371;-46
2022/03/02 09:31:38;;;;;;;;;;;23.70;26.50;;;;;;5072520;28;19965;-49
2022/03/02 09:34:07;;;;;;;;;;;23.70;26.50;;;;;;5073503;28;19916;-47
2022/03/02 09:36:36;;;;;;;;;;;23.70;26.50;;;;;;5074486;28;20242;-46
2022/03/02 09:39:04;;;;;;;;;;;23.70;26.40;;;;;;5074702;28;19961;-49
2022/03/02 09:41:39;;;;;;;;;;;23.70;26.40;;;;;;5074423;28;19946;-45
2022/03/02 09:44:05;;;;;;;;;;;23.70;26.40;;;;;;5075046;28;20363;-47
2022/03/02 09:46:34;;;;;;;;;;;23.70;26.30;;;;;;5069782;28;20358;-48
2022/03/02 09:49:09;;;;;;;;;;;23.70;26.30;;;;;;5074785;28;20352;-51
2022/03/02 09:51:36;;;;;;;;;;;23.70;26.30;;;;;;5074628;28;20342;-46
2022/03/02 09:54:03;;;;;;;;;;;23.60;26.30;;;;;;5078103;28;19908;-47
2022/03/02 09:56:31;;;;;;;;;;;23.60;26.30;;;;;;5079177;28;19920;-45
2022/03/02 09:58:57;;;;;;;;;;;23.60;26.30;;;;;;5078765;28;19951;-49
2022/03/02 10:01:24;;;;;;;;;;;23.60;26.20;;;;;;5078910;28;20372;-46
2022/03/02 10:03:51;;;;;;;;;;;23.60;26.20;;;;;;5078794;28;19958;-48
2022/03/02 10:06:17;;;;;;;;;;;23.60;26.20;;;;;;5078534;28;19934;-48
2022/03/02 10:08:47;;;;;;;;;;;23.50;26.10;;;;;;5078379;28;19908;-48
2022/03/02 10:11:14;;;;;;;;;;;23.50;26.10;;;;;;5077747;28;19935;-48
2022/03/02 10:13:41;;;;;;;;;;;23.50;26.10;;;;;;5079190;28;19913;-48
2022/03/02 10:16:09;;;;;;;;;;;23.50;26.10;;;;;;5078631;28;19908;-52
2022/03/02 10:18:35;;;;;;;;;;;23.50;26.10;;;;;;5078539;28;19950;-50
2022/03/02 10:21:02;;;;;;;;;;;23.50;26.10;;;;;;5078344;28;20232;-46
2022/03/02 10:23:34;;;;;;;;;;;23.50;26.10;;;;;;5077663;28;19940;-50
2022/03/02 10:26:01;;;;;;;;;;;23.50;26.10;;;;;;5078811;28;19909;-48
2022/03/02 10:28:28;;;;;;;;;;;23.50;26.10;;;;;;5078185;28;19914;-50
2022/03/02 10:31:06;;;;;;;;;;;23.50;26.10;;;;;;5078372;28;19924;-48
2022/03/02 10:33:35;;;;;;;;;;;23.50;26.10;;;;;;5070541;28;19974;-54
2022/03/02 10:36:05;;;;;;;;;;;23.40;26.00;;;;;;5074484;28;20284;-48
2022/03/02 10:38:39;;;;;;;;;;;23.40;26.00;;;;;;5069132;28;19909;-47
2022/03/02 10:41:09;;;;;;;;;;;23.40;26.10;;;;;;5075825;28;20010;-48
2022/03/02 10:43:40;;;;;;;;;;;23.40;26.20;;;;;;5073340;28;19912;-49
2022/03/02 10:46:07;;;;;;;;;;;23.40;26.20;;;;;;5068147;28;21317;-52
2022/03/02 10:48:44;;;;;;;;;;;23.40;26.30;;;;;;5074503;28;19956;-52
2022/03/02 10:51:10;;;;;;;;;;;23.40;26.30;;;;;;5075286;28;20048;-48
2022/03/02 10:53:37;;;;;;;;;;;23.40;26.30;;;;;;5075296;28;19920;-50
2022/03/02 10:56:04;;;;;;;;;;;23.40;26.30;;;;;;5067259;28;19951;-45
2022/03/02 10:58:31;;;;;;;;;;;23.40;26.30;;;;;;5076243;28;19920;-47
2022/03/02 11:00:58;;;;;;;;;;;23.40;26.40;;;;;;5076158;28;19916;-50
2022/03/02 11:03:26;;;;;;;;;;;23.40;26.40;;;;;;5076078;28;19921;-49
2022/03/02 11:05:52;;;;;;;;;;;23.40;26.50;;;;;;5074815;28;20339;-50
2022/03/02 11:08:20;;;;;;;;;;;23.50;26.50;;;;;;5075408;28;19920;-44
2022/03/02 11:10:47;;;;;;;;;;;23.40;26.50;;;;;;5075116;28;19908;-50
2022/03/02 11:13:13;;;;;;;;;;;23.40;26.50;;;;;;5074479;28;20010;-49
2022/03/02 11:15:45;;;;;;;;;;;23.40;26.60;;;;;;5074777;28;20251;-47
2022/03/02 11:18:16;;;;;;;;;;;23.40;26.60;;;;;;5076447;28;19908;-46
2022/03/02 11:20:52;;;;;;;;;;;23.40;26.60;;;;;;5076648;28;19928;-57
2022/03/02 11:23:22;;;;;;;;;;;23.40;26.60;;;;;;5071284;28;19924;-48
2022/03/02 11:25:50;;;;;;;;;;;23.40;26.60;;;;;;5074605;28;20239;-48
2022/03/02 11:28:22;;;;;;;;;;;23.40;26.50;;;;;;5075456;28;19916;-52
2022/03/02 11:30:52;;;;;;;;;;;23.40;26.60;;;;;;5075895;28;20050;-46
2022/03/02 11:33:27;;;;;;;;;;;23.40;26.50;;;;;;5073883;28;19958;-44
2022/03/02 11:35:53;;;;;;;;;;;23.40;26.50;;;;;;5073447;28;20389;-43
2022/03/02 11:38:21;;;;;;;;;;;23.40;26.50;;;;;;5073218;28;20239;-46
2022/03/02 11:40:47;;;;;;;;;;;23.40;26.50;;;;;;5073806;28;19920;-47
2022/03/02 11:43:21;;;;;;;;;;;23.40;26.50;;;;;;5072781;28;19908;-44
2022/03/02 11:45:47;;;;;;;;;;;23.40;26.50;;;;;;5075454;28;19920;-47
2022/03/02 11:48:20;;;;;;;;;;;23.40;26.50;;;;;;5075125;28;19954;-48
2022/03/02 11:51:05;;;;;;;;;;;23.40;26.50;;;;;;5075972;28;19908;-47
2022/03/02 11:53:35;;;;;;;;;;;23.40;26.50;;;;;;5070953;28;19982;-49
2022/03/02 11:56:02;;;;;;;;;;;23.30;26.40;;;;;;5073188;28;20011;-50
2022/03/02 11:58:28;;;;;;;;;;;23.40;26.50;;;;;;5074657;28;20347;-44
2022/03/02 12:01:04;;;;;;;;;;;23.40;26.50;;;;;;5072494;28;19916;-46
2022/03/02 12:03:30;;;;;;;;;;;23.40;26.50;;;;;;5072442;28;20235;-44
2022/03/02 12:06:04;;;;;;;;;;;23.30;26.40;;;;;;5075411;28;20007;-46
2022/03/02 12:08:32;;;;;;;;;;;23.30;26.40;;;;;;5071114;28;19991;-45
2022/03/02 12:11:01;;;;;;;;;;;23.30;26.40;;;;;;5075207;28;19908;-44
2022/03/02 12:13:27;;;;;;;;;;;23.30;26.40;;;;;;5072771;28;20036;-49
2022/03/02 12:15:54;;;;;;;;;;;23.30;26.50;;;;;;5075181;28;20253;-50
2022/03/02 12:18:20;;;;;;;;;;;23.20;26.40;;;;;;5070001;28;19988;-48
2022/03/02 12:20:47;;;;;;;;;;;23.20;26.40;;;;;;5076197;28;19924;-48
2022/03/02 12:23:13;;;;;;;;;;;23.20;26.40;;;;;;5059443;28;19908;-48
2022/03/02 12:25:44;;;;;;;;;;;23.20;26.40;;;;;;5059880;28;19908;-47
2022/03/02 12:28:12;;;;;;;;;;;23.10;26.30;;;;;;5061701;28;19908;-45
2022/03/02 12:30:37;;;;;;;;;;;23.10;26.30;;;;;;5063481;28;20007;-52
2022/03/02 12:33:05;;;;;;;;;;;23.10;26.30;;;;;;5062574;28;20029;-46
2022/03/02 12:35:31;;;;;;;;;;;23.10;26.30;;;;;;5062460;28;20007;-47
2022/03/02 12:37:59;;;;;;;;;;;23.10;26.20;;;;;;5062466;28;19956;-53
2022/03/02 12:40:28;;;;;;;;;;;23.10;26.20;;;;;;5061846;28;19916;-49
2022/03/02 12:42:54;;;;;;;;;;;23.10;26.20;;;;;;5063289;28;20248;-47
2022/03/02 12:45:20;;;;;;;;;;;23.10;26.20;;;;;;5070344;28;19909;-51
2022/03/02 12:47:46;;;;;;;;;;;23.00;26.10;;;;;;5079035;28;20320;-55
2022/03/02 12:50:13;;;;;;;;;;;23.10;26.10;;;;;;5075570;28;19936;-50
2022/03/02 12:52:39;;;;;;;;;;;23.10;26.10;;;;;;5074405;28;19908;-47
2022/03/02 12:55:05;;;;;;;;;;;23.10;26.00;;;;;;5075421;28;19913;-48
2022/03/02 12:57:31;;;;;;;;;;;23.10;26.00;;;;;;5057506;28;19972;-50
2022/03/02 12:59:58;;;;;;;;;;;23.00;25.90;;;;;;5066622;28;19912;-50
2022/03/02 13:02:44;;;;;;;;;;;23.10;26.00;;;;;;5068014;28;20847;-47
2022/03/02 13:05:16;;;;;;;;;;;23.00;25.90;;;;;;5075406;28;19909;-52
2022/03/02 13:07:49;;;;;;;;;;;23.00;25.90;;;;;;5055641;28;19966;-47
2022/03/02 13:10:19;;;;;;;;;;;23.00;25.90;;;;;;5059618;28;19909;-49
2022/03/02 13:12:51;;;;;;;;;;;23.00;25.90;;;;;;5055980;28;19908;-52
2022/03/02 13:15:24;;;;;;;;;;;23.00;26.00;;;;;;5072464;28;19919;-54
2022/03/02 13:18:10;;;;;;;;;;;23.00;25.90;;;;;;5072890;28;20323;-52
2022/03/02 13:20:37;;;;;;;;;;;23.00;25.90;;;;;;5071263;28;19923;-52
2022/03/02 13:23:15;;;;;;;;;;;23.00;26.40;;;;;;5070075;28;19918;-46
2022/03/02 13:25:59;;;;;;;;;;;23.00;25.90;;;;;;5074093;28;19908;-49
2022/03/02 13:28:28;;;;;;;;;;;23.00;25.90;;;;;;5074145;28;19966;-46
2022/03/02 13:31:12;;;;;;;;;;;23.00;25.80;;;;;;5069474;28;20320;-47
2022/03/02 13:33:57;;;;;;;;;;;23.00;25.80;;;;;;5074827;28;19918;-53
2022/03/02 13:36:39;;;;;;;;;;;22.90;25.70;;;;;;5064151;28;19919;-47
2022/03/02 13:39:12;;;;;;;;;;;22.90;25.70;;;;;;5055044;28;19967;-47
2022/03/02 13:41:39;;;;;;;;;;;22.90;25.70;;;;;;5066318;28;19923;-49
2022/03/02 13:44:20;;;;;;;;;;;22.90;25.70;;;;;;5073897;28;19912;-49
2022/03/02 13:47:06;;;;;;;;;;;22.90;25.70;;;;;;5072983;28;20291;-52
2022/03/02 13:52:12;;;;;;;;;;;22.90;25.60;;;;;;5071197;28;19916;-49
2022/03/02 13:54:38;;;;;;;;;;;22.80;25.60;;;;;;5067997;28;19909;-53
2022/03/02 13:57:04;;;;;;;;;;;22.80;25.60;;;;;;5054942;28;19921;-50
2022/03/02 13:59:30;;;;;;;;;;;22.80;25.60;;;;;;5065934;28;20025;-48
2022/03/02 14:01:56;;;;;;;;;;;22.80;25.50;;;;;;5066268;28;19925;-50
2022/03/02 14:04:22;;;;;;;;;;;22.80;25.50;;;;;;5063816;28;19920;-56
2022/03/02 14:06:52;;;;;;;;;;;22.80;25.50;;;;;;5057768;28;19919;-49
2022/03/02 14:09:18;;;;;;;;;;;22.80;26.00;;;;;;5062662;28;20357;-54
2022/03/02 14:11:43;;;;;;;;;;;22.90;25.60;;;;;;5073412;28;19944;-49
2022/03/02 14:14:14;;;;;;;;;;;22.90;25.60;;;;;;5074200;28;19967;-47
2022/03/02 14:16:50;;;;;;;;;;;22.90;25.50;;;;;;5073530;28;20235;-49
2022/03/02 14:19:16;;;;;;;;;;;22.90;25.50;;;;;;5070953;28;20003;-49
2022/03/02 14:21:56;;;;;;;;;;;22.90;25.60;;;;;;5055292;28;20016;-43